sensor_id;sensor_type;location;lat;lon;timestamp;temperature;humidity
74416;SHT31;62850;42.428;25.618;2022-09-14T00:00:45;17.06;52.99
74416;SHT31;62850;42.428;25.618;2022-09-14T00:03:11;17.11;52.74
74416;SHT31;62850;42.428;25.618;2022-09-14T00:05:36;17.11;53.11
74416;SHT31;62850;42.428;25.618;2022-09-14T00:08:02;17.16;54.10
74416;SHT31;62850;42.428;25.618;2022-09-14T00:10:28;17.16;53.64
74416;SHT31;62850;42.428;25.618;2022-09-14T00:12:54;17.14;53.73
74416;SHT31;62850;42.428;25.618;2022-09-14T00:15:19;17.16;53.69
74416;SHT31;62850;42.428;25.618;2022-09-14T00:17:45;17.14;53.43
74416;SHT31;62850;42.428;25.618;2022-09-14T00:20:10;17.14;53.91
74416;SHT31;62850;42.428;25.618;2022-09-14T00:22:36;17.00;54.55
74416;SHT31;62850;42.428;25.618;2022-09-14T00:25:02;16.89;54.88
74416;SHT31;62850;42.428;25.618;2022-09-14T00:27:27;16.77;55.23
74416;SHT31;62850;42.428;25.618;2022-09-14T00:29:53;16.65;55.55
74416;SHT31;62850;42.428;25.618;2022-09-14T00:32:18;16.63;56.12
74416;SHT31;62850;42.428;25.618;2022-09-14T00:34:44;16.53;55.87
74416;SHT31;62850;42.428;25.618;2022-09-14T00:37:10;16.38;55.77
74416;SHT31;62850;42.428;25.618;2022-09-14T00:39:36;16.36;55.63
74416;SHT31;62850;42.428;25.618;2022-09-14T00:42:03;16.31;56.23
74416;SHT31;62850;42.428;25.618;2022-09-14T00:47:00;16.18;57.79
74416;SHT31;62850;42.428;25.618;2022-09-14T00:49:32;16.14;57.73
74416;SHT31;62850;42.428;25.618;2022-09-14T00:52:07;16.08;58.19
74416;SHT31;62850;42.428;25.618;2022-09-14T00:54:40;16.05;57.83
74416;SHT31;62850;42.428;25.618;2022-09-14T00:57:07;16.10;58.32
74416;SHT31;62850;42.428;25.618;2022-09-14T00:59:35;16.02;58.76
74416;SHT31;62850;42.428;25.618;2022-09-14T01:02:02;15.97;58.92
74416;SHT31;62850;42.428;25.618;2022-09-14T01:04:28;15.90;59.20
74416;SHT31;62850;42.428;25.618;2022-09-14T01:15:16;15.83;59.26
74416;SHT31;62850;42.428;25.618;2022-09-14T01:18:15;15.77;59.19
74416;SHT31;62850;42.428;25.618;2022-09-14T01:21:07;15.71;59.68
74416;SHT31;62850;42.428;25.618;2022-09-14T01:29:44;15.36;59.78
74416;SHT31;62850;42.428;25.618;2022-09-14T01:32:27;15.26;60.44
74416;SHT31;62850;42.428;25.618;2022-09-14T01:35:02;15.28;60.75
74416;SHT31;62850;42.428;25.618;2022-09-14T01:37:58;15.28;60.38
74416;SHT31;62850;42.428;25.618;2022-09-14T01:40:43;15.18;61.37
74416;SHT31;62850;42.428;25.618;2022-09-14T01:43:33;15.19;61.26
74416;SHT31;62850;42.428;25.618;2022-09-14T01:46:15;15.11;60.87
74416;SHT31;62850;42.428;25.618;2022-09-14T01:48:46;15.13;60.38
74416;SHT31;62850;42.428;25.618;2022-09-14T01:51:18;15.09;60.72
74416;SHT31;62850;42.428;25.618;2022-09-14T01:53:48;15.03;60.94
74416;SHT31;62850;42.428;25.618;2022-09-14T01:59:43;15.02;60.67
74416;SHT31;62850;42.428;25.618;2022-09-14T02:04:51;14.99;61.65
74416;SHT31;62850;42.428;25.618;2022-09-14T02:07:18;14.93;61.78
74416;SHT31;62850;42.428;25.618;2022-09-14T02:09:46;14.91;61.48
74416;SHT31;62850;42.428;25.618;2022-09-14T02:12:12;14.87;61.88
74416;SHT31;62850;42.428;25.618;2022-09-14T02:14:38;14.84;62.15
74416;SHT31;62850;42.428;25.618;2022-09-14T02:17:04;14.81;62.65
74416;SHT31;62850;42.428;25.618;2022-09-14T02:19:31;14.77;62.38
74416;SHT31;62850;42.428;25.618;2022-09-14T02:21:58;14.84;62.27
74416;SHT31;62850;42.428;25.618;2022-09-14T02:24:27;14.91;60.82
74416;SHT31;62850;42.428;25.618;2022-09-14T02:26:54;14.85;61.40
74416;SHT31;62850;42.428;25.618;2022-09-14T02:29:21;14.93;61.47
74416;SHT31;62850;42.428;25.618;2022-09-14T02:31:57;15.02;60.69
74416;SHT31;62850;42.428;25.618;2022-09-14T02:37:02;15.01;60.96
74416;SHT31;62850;42.428;25.618;2022-09-14T02:40:17;14.98;61.85
74416;SHT31;62850;42.428;25.618;2022-09-14T02:49:03;15.13;61.00
74416;SHT31;62850;42.428;25.618;2022-09-14T02:51:35;15.23;61.15
74416;SHT31;62850;42.428;25.618;2022-09-14T02:54:16;15.26;60.55
74416;SHT31;62850;42.428;25.618;2022-09-14T02:56:43;15.21;61.61
74416;SHT31;62850;42.428;25.618;2022-09-14T02:59:09;15.18;61.63
74416;SHT31;62850;42.428;25.618;2022-09-14T03:01:35;15.21;61.58
74416;SHT31;62850;42.428;25.618;2022-09-14T03:04:01;15.22;61.79
74416;SHT31;62850;42.428;25.618;2022-09-14T03:06:26;15.22;62.05
74416;SHT31;62850;42.428;25.618;2022-09-14T03:08:52;15.16;62.36
74416;SHT31;62850;42.428;25.618;2022-09-14T03:11:18;15.08;62.31
74416;SHT31;62850;42.428;25.618;2022-09-14T03:13:43;15.05;62.57
74416;SHT31;62850;42.428;25.618;2022-09-14T03:16:11;15.02;62.75
74416;SHT31;62850;42.428;25.618;2022-09-14T03:18:37;15.08;62.38
74416;SHT31;62850;42.428;25.618;2022-09-14T03:21:16;15.05;61.66
74416;SHT31;62850;42.428;25.618;2022-09-14T03:23:46;15.09;61.33
74416;SHT31;62850;42.428;25.618;2022-09-14T03:26:19;15.15;61.65
74416;SHT31;62850;42.428;25.618;2022-09-14T03:28:54;15.18;61.79
74416;SHT31;62850;42.428;25.618;2022-09-14T03:31:20;15.05;62.30
74416;SHT31;62850;42.428;25.618;2022-09-14T03:33:45;15.03;62.47
74416;SHT31;62850;42.428;25.618;2022-09-14T03:36:14;15.03;62.19
74416;SHT31;62850;42.428;25.618;2022-09-14T03:38:48;14.96;62.50
74416;SHT31;62850;42.428;25.618;2022-09-14T03:41:14;14.85;62.77
74416;SHT31;62850;42.428;25.618;2022-09-14T03:43:40;14.93;62.19
74416;SHT31;62850;42.428;25.618;2022-09-14T03:46:08;14.89;62.03
74416;SHT31;62850;42.428;25.618;2022-09-14T03:48:33;14.80;62.95
74416;SHT31;62850;42.428;25.618;2022-09-14T03:51:00;14.74;63.35
74416;SHT31;62850;42.428;25.618;2022-09-14T03:53:26;14.80;62.93
74416;SHT31;62850;42.428;25.618;2022-09-14T03:55:52;14.84;63.07
74416;SHT31;62850;42.428;25.618;2022-09-14T03:58:17;14.81;63.40
74416;SHT31;62850;42.428;25.618;2022-09-14T04:00:43;14.75;63.56
74416;SHT31;62850;42.428;25.618;2022-09-14T04:03:08;14.78;63.14
74416;SHT31;62850;42.428;25.618;2022-09-14T04:05:34;14.74;63.00
74416;SHT31;62850;42.428;25.618;2022-09-14T04:07:59;14.71;63.46
74416;SHT31;62850;42.428;25.618;2022-09-14T04:10:25;14.64;63.49
74416;SHT31;62850;42.428;25.618;2022-09-14T04:12:51;14.67;63.50
74416;SHT31;62850;42.428;25.618;2022-09-14T04:15:16;14.71;63.28
74416;SHT31;62850;42.428;25.618;2022-09-14T04:17:42;14.72;63.36
74416;SHT31;62850;42.428;25.618;2022-09-14T04:20:08;14.72;62.73
74416;SHT31;62850;42.428;25.618;2022-09-14T04:22:33;14.72;62.88
74416;SHT31;62850;42.428;25.618;2022-09-14T04:24:59;14.77;62.58
74416;SHT31;62850;42.428;25.618;2022-09-14T04:27:24;14.85;62.51
74416;SHT31;62850;42.428;25.618;2022-09-14T04:29:50;14.91;62.69
74416;SHT31;62850;42.428;25.618;2022-09-14T04:32:16;14.98;62.52
74416;SHT31;62850;42.428;25.618;2022-09-14T04:34:42;15.02;62.79
74416;SHT31;62850;42.428;25.618;2022-09-14T04:37:07;15.06;62.52
74416;SHT31;62850;42.428;25.618;2022-09-14T04:39:33;15.12;62.58
74416;SHT31;62850;42.428;25.618;2022-09-14T04:41:58;15.15;62.85
74416;SHT31;62850;42.428;25.618;2022-09-14T04:44:24;15.25;62.78
74416;SHT31;62850;42.428;25.618;2022-09-14T04:46:49;15.23;63.27
74416;SHT31;62850;42.428;25.618;2022-09-14T04:49:15;15.28;63.05
74416;SHT31;62850;42.428;25.618;2022-09-14T04:51:43;15.33;63.45
74416;SHT31;62850;42.428;25.618;2022-09-14T04:54:13;15.46;63.93
74416;SHT31;62850;42.428;25.618;2022-09-14T04:56:39;15.57;63.50
74416;SHT31;62850;42.428;25.618;2022-09-14T04:59:05;15.66;63.41
74416;SHT31;62850;42.428;25.618;2022-09-14T05:01:34;15.74;63.58
74416;SHT31;62850;42.428;25.618;2022-09-14T05:04:00;15.81;63.67
74416;SHT31;62850;42.428;25.618;2022-09-14T05:06:28;15.96;63.07
74416;SHT31;62850;42.428;25.618;2022-09-14T05:08:55;16.07;61.84
74416;SHT31;62850;42.428;25.618;2022-09-14T05:11:24;16.24;62.55
74416;SHT31;62850;42.428;25.618;2022-09-14T05:13:50;16.35;62.71
74416;SHT31;62850;42.428;25.618;2022-09-14T05:16:19;16.47;61.99
74416;SHT31;62850;42.428;25.618;2022-09-14T05:18:45;16.42;62.05
74416;SHT31;62850;42.428;25.618;2022-09-14T05:21:13;16.51;61.78
74416;SHT31;62850;42.428;25.618;2022-09-14T05:23:39;16.58;61.41
74416;SHT31;62850;42.428;25.618;2022-09-14T05:26:05;16.68;61.55
74416;SHT31;62850;42.428;25.618;2022-09-14T05:28:32;16.72;61.26
74416;SHT31;62850;42.428;25.618;2022-09-14T05:30:58;16.75;61.30
74416;SHT31;62850;42.428;25.618;2022-09-14T05:33:24;16.81;60.08
74416;SHT31;62850;42.428;25.618;2022-09-14T05:35:50;16.89;59.79
74416;SHT31;62850;42.428;25.618;2022-09-14T05:38:16;16.94;59.95
74416;SHT31;62850;42.428;25.618;2022-09-14T05:40:41;17.02;59.83
74416;SHT31;62850;42.428;25.618;2022-09-14T05:43:07;16.96;59.39
74416;SHT31;62850;42.428;25.618;2022-09-14T05:45:33;16.97;59.24
74416;SHT31;62850;42.428;25.618;2022-09-14T05:48:00;17.00;58.94
74416;SHT31;62850;42.428;25.618;2022-09-14T05:50:33;17.03;58.67
74416;SHT31;62850;42.428;25.618;2022-09-14T05:52:59;17.03;57.91
74416;SHT31;62850;42.428;25.618;2022-09-14T05:55:25;16.96;58.32
74416;SHT31;62850;42.428;25.618;2022-09-14T05:57:50;16.97;58.51
74416;SHT31;62850;42.428;25.618;2022-09-14T06:00:17;17.07;58.60
74416;SHT31;62850;42.428;25.618;2022-09-14T06:02:50;17.10;58.41
74416;SHT31;62850;42.428;25.618;2022-09-14T06:05:16;17.21;57.78
74416;SHT31;62850;42.428;25.618;2022-09-14T06:07:42;17.28;57.97
74416;SHT31;62850;42.428;25.618;2022-09-14T06:10:09;17.27;57.69
74416;SHT31;62850;42.428;25.618;2022-09-14T06:12:35;17.27;58.16
74416;SHT31;62850;42.428;25.618;2022-09-14T06:15:00;17.35;57.41
74416;SHT31;62850;42.428;25.618;2022-09-14T06:17:28;17.34;57.65
74416;SHT31;62850;42.428;25.618;2022-09-14T06:19:53;17.41;57.23
74416;SHT31;62850;42.428;25.618;2022-09-14T06:22:19;17.47;57.69
74416;SHT31;62850;42.428;25.618;2022-09-14T06:24:44;17.55;56.50
74416;SHT31;62850;42.428;25.618;2022-09-14T06:27:10;17.61;56.67
74416;SHT31;62850;42.428;25.618;2022-09-14T06:29:36;17.72;57.43
74416;SHT31;62850;42.428;25.618;2022-09-14T06:32:01;17.86;55.72
74416;SHT31;62850;42.428;25.618;2022-09-14T06:34:27;17.90;56.05
74416;SHT31;62850;42.428;25.618;2022-09-14T06:36:52;18.00;54.25
74416;SHT31;62850;42.428;25.618;2022-09-14T06:39:18;18.06;55.69
74416;SHT31;62850;42.428;25.618;2022-09-14T06:41:43;18.18;55.46
74416;SHT31;62850;42.428;25.618;2022-09-14T06:44:09;18.23;56.03
74416;SHT31;62850;42.428;25.618;2022-09-14T06:46:35;18.32;54.74
74416;SHT31;62850;42.428;25.618;2022-09-14T06:49:05;18.40;54.57
74416;SHT31;62850;42.428;25.618;2022-09-14T06:53:58;18.54;54.94
74416;SHT31;62850;42.428;25.618;2022-09-14T06:56:25;18.63;53.66
74416;SHT31;62850;42.428;25.618;2022-09-14T06:58:51;18.68;54.01
74416;SHT31;62850;42.428;25.618;2022-09-14T07:01:18;18.81;52.96
74416;SHT31;62850;42.428;25.618;2022-09-14T07:03:44;18.94;52.63
74416;SHT31;62850;42.428;25.618;2022-09-14T07:06:31;19.06;51.61
74416;SHT31;62850;42.428;25.618;2022-09-14T07:08:57;19.14;51.88
74416;SHT31;62850;42.428;25.618;2022-09-14T07:11:25;19.20;50.86
74416;SHT31;62850;42.428;25.618;2022-09-14T07:13:53;19.32;51.02
74416;SHT31;62850;42.428;25.618;2022-09-14T07:16:29;19.45;50.91
74416;SHT31;62850;42.428;25.618;2022-09-14T07:18:56;19.54;50.74
74416;SHT31;62850;42.428;25.618;2022-09-14T07:21:22;19.66;50.26
74416;SHT31;62850;42.428;25.618;2022-09-14T07:23:48;19.87;49.73
74416;SHT31;62850;42.428;25.618;2022-09-14T07:26:20;20.11;49.15
74416;SHT31;62850;42.428;25.618;2022-09-14T07:28:51;20.51;47.84
74416;SHT31;62850;42.428;25.618;2022-09-14T07:31:27;20.94;47.13
74416;SHT31;62850;42.428;25.618;2022-09-14T07:33:56;21.20;46.34
74416;SHT31;62850;42.428;25.618;2022-09-14T07:36:25;21.37;45.52
74416;SHT31;62850;42.428;25.618;2022-09-14T07:38:51;21.61;45.13
74416;SHT31;62850;42.428;25.618;2022-09-14T07:41:17;21.68;44.77
74416;SHT31;62850;42.428;25.618;2022-09-14T07:43:47;21.69;44.56
74416;SHT31;62850;42.428;25.618;2022-09-14T07:46:13;21.81;44.19
74416;SHT31;62850;42.428;25.618;2022-09-14T07:48:38;21.63;43.96
74416;SHT31;62850;42.428;25.618;2022-09-14T07:51:06;21.63;43.90
74416;SHT31;62850;42.428;25.618;2022-09-14T07:53:35;21.62;43.76
74416;SHT31;62850;42.428;25.618;2022-09-14T07:56:02;21.69;44.18
74416;SHT31;62850;42.428;25.618;2022-09-14T07:58:28;21.62;44.46
74416;SHT31;62850;42.428;25.618;2022-09-14T08:01:02;21.63;44.58
74416;SHT31;62850;42.428;25.618;2022-09-14T08:03:29;21.58;45.06
74416;SHT31;62850;42.428;25.618;2022-09-14T08:06:03;21.65;45.48
74416;SHT31;62850;42.428;25.618;2022-09-14T08:08:32;21.68;45.31
74416;SHT31;62850;42.428;25.618;2022-09-14T08:11:03;21.66;46.09
74416;SHT31;62850;42.428;25.618;2022-09-14T08:13:31;21.77;46.28
74416;SHT31;62850;42.428;25.618;2022-09-14T08:15:56;21.79;45.96
74416;SHT31;62850;42.428;25.618;2022-09-14T08:18:24;21.89;45.78
74416;SHT31;62850;42.428;25.618;2022-09-14T08:20:49;22.00;46.04
74416;SHT31;62850;42.428;25.618;2022-09-14T08:23:15;22.06;45.65
74416;SHT31;62850;42.428;25.618;2022-09-14T08:25:40;22.16;45.02
74416;SHT31;62850;42.428;25.618;2022-09-14T08:28:06;22.21;43.71
74416;SHT31;62850;42.428;25.618;2022-09-14T08:30:32;22.29;44.22
74416;SHT31;62850;42.428;25.618;2022-09-14T08:32:57;22.40;44.28
74416;SHT31;62850;42.428;25.618;2022-09-14T08:35:23;22.53;44.34
74416;SHT31;62850;42.428;25.618;2022-09-14T08:37:48;22.67;44.05
74416;SHT31;62850;42.428;25.618;2022-09-14T08:40:14;22.79;43.55
74416;SHT31;62850;42.428;25.618;2022-09-14T08:42:41;22.94;42.90
74416;SHT31;62850;42.428;25.618;2022-09-14T08:45:10;23.09;43.42
74416;SHT31;62850;42.428;25.618;2022-09-14T08:47:39;23.33;42.56
74416;SHT31;62850;42.428;25.618;2022-09-14T08:52:35;23.67;41.81
74416;SHT31;62850;42.428;25.618;2022-09-14T09:00:45;24.45;39.48
74416;SHT31;62850;42.428;25.618;2022-09-14T09:09:08;25.06;38.20
74416;SHT31;62850;42.428;25.618;2022-09-14T09:11:43;25.17;39.24
74416;SHT31;62850;42.428;25.618;2022-09-14T09:16:43;24.92;36.37
74416;SHT31;62850;42.428;25.618;2022-09-14T09:19:13;25.14;36.25
74416;SHT31;62850;42.428;25.618;2022-09-14T09:21:44;24.99;36.63
74416;SHT31;62850;42.428;25.618;2022-09-14T09:24:23;25.16;36.47
74416;SHT31;62850;42.428;25.618;2022-09-14T09:26:50;25.47;36.86
74416;SHT31;62850;42.428;25.618;2022-09-14T09:29:15;25.77;36.60
74416;SHT31;62850;42.428;25.618;2022-09-14T09:31:49;26.02;35.87
74416;SHT31;62850;42.428;25.618;2022-09-14T09:34:16;26.25;34.02
74416;SHT31;62850;42.428;25.618;2022-09-14T09:36:47;26.47;34.17
74416;SHT31;62850;42.428;25.618;2022-09-14T09:39:14;26.59;34.19
74416;SHT31;62850;42.428;25.618;2022-09-14T09:44:09;26.86;33.62
74416;SHT31;62850;42.428;25.618;2022-09-14T09:46:53;26.76;32.94
74416;SHT31;62850;42.428;25.618;2022-09-14T09:51:50;26.94;31.72
74416;SHT31;62850;42.428;25.618;2022-09-14T09:54:48;27.04;31.96
74416;SHT31;62850;42.428;25.618;2022-09-14T09:57:28;27.34;31.59
74416;SHT31;62850;42.428;25.618;2022-09-14T10:00:24;27.62;30.84
74416;SHT31;62850;42.428;25.618;2022-09-14T10:02:51;27.58;29.30
74416;SHT31;62850;42.428;25.618;2022-09-14T10:10:15;27.73;30.67
74416;SHT31;62850;42.428;25.618;2022-09-14T10:12:46;27.90;30.50
74416;SHT31;62850;42.428;25.618;2022-09-14T10:15:22;28.08;30.30
74416;SHT31;62850;42.428;25.618;2022-09-14T10:28:45;29.02;27.02
74416;SHT31;62850;42.428;25.618;2022-09-14T10:33:39;29.06;27.05
74416;SHT31;62850;42.428;25.618;2022-09-14T10:50:08;29.74;27.11
74416;SHT31;62850;42.428;25.618;2022-09-14T10:53:04;29.71;26.44
74416;SHT31;62850;42.428;25.618;2022-09-14T11:04:33;29.49;25.93
74416;SHT31;62850;42.428;25.618;2022-09-14T11:07:22;29.42;25.75
74416;SHT31;62850;42.428;25.618;2022-09-14T11:10:18;29.36;26.04
74416;SHT31;62850;42.428;25.618;2022-09-14T11:15:57;29.23;26.37
74416;SHT31;62850;42.428;25.618;2022-09-14T11:24:16;29.63;27.36
74416;SHT31;62850;42.428;25.618;2022-09-14T11:29:47;29.68;25.97
74416;SHT31;62850;42.428;25.618;2022-09-14T11:32:29;29.78;26.49
74416;SHT31;62850;42.428;25.618;2022-09-14T11:37:42;29.89;26.91
74416;SHT31;62850;42.428;25.618;2022-09-14T11:40:29;29.91;26.32
74416;SHT31;62850;42.428;25.618;2022-09-14T11:43:14;29.74;26.45
74416;SHT31;62850;42.428;25.618;2022-09-14T11:45:45;29.74;25.88
74416;SHT31;62850;42.428;25.618;2022-09-14T11:51:11;29.46;26.94
74416;SHT31;62850;42.428;25.618;2022-09-14T11:53:43;29.42;26.92
74416;SHT31;62850;42.428;25.618;2022-09-14T11:56:30;29.22;26.11
74416;SHT31;62850;42.428;25.618;2022-09-14T11:58:59;29.36;26.19
74416;SHT31;62850;42.428;25.618;2022-09-14T12:01:34;29.07;27.05
74416;SHT31;62850;42.428;25.618;2022-09-14T12:04:05;28.99;27.17
74416;SHT31;62850;42.428;25.618;2022-09-14T12:11:42;29.03;28.03
74416;SHT31;62850;42.428;25.618;2022-09-14T12:19:45;29.27;26.99
74416;SHT31;62850;42.428;25.618;2022-09-14T12:22:29;29.40;26.79
74416;SHT31;62850;42.428;25.618;2022-09-14T12:25:17;29.49;26.20
74416;SHT31;62850;42.428;25.618;2022-09-14T12:27:44;29.51;25.73
74416;SHT31;62850;42.428;25.618;2022-09-14T12:51:46;29.63;27.28
74416;SHT31;62850;42.428;25.618;2022-09-14T12:54:52;29.71;26.53
74416;SHT31;62850;42.428;25.618;2022-09-14T12:57:29;29.78;27.90
74416;SHT31;62850;42.428;25.618;2022-09-14T13:00:16;29.65;28.55
74416;SHT31;62850;42.428;25.618;2022-09-14T13:03:03;29.77;28.10
74416;SHT31;62850;42.428;25.618;2022-09-14T13:05:33;29.78;26.88
74416;SHT31;62850;42.428;25.618;2022-09-14T13:07:59;29.80;27.43
74416;SHT31;62850;42.428;25.618;2022-09-14T13:10:34;29.77;27.77
74416;SHT31;62850;42.428;25.618;2022-09-14T13:13:04;29.86;27.09
74416;SHT31;62850;42.428;25.618;2022-09-14T13:15:35;29.82;27.09
74416;SHT31;62850;42.428;25.618;2022-09-14T13:20:30;30.08;28.31
74416;SHT31;62850;42.428;25.618;2022-09-14T13:22:56;30.06;27.33
74416;SHT31;62850;42.428;25.618;2022-09-14T13:25:35;29.98;27.98
74416;SHT31;62850;42.428;25.618;2022-09-14T13:28:05;29.88;28.32
74416;SHT31;62850;42.428;25.618;2022-09-14T13:30:32;29.95;27.29
74416;SHT31;62850;42.428;25.618;2022-09-14T13:32:59;29.95;28.19
74416;SHT31;62850;42.428;25.618;2022-09-14T13:35:31;29.92;27.52
74416;SHT31;62850;42.428;25.618;2022-09-14T13:37:58;30.02;27.78
74416;SHT31;62850;42.428;25.618;2022-09-14T13:40:27;30.08;28.53
74416;SHT31;62850;42.428;25.618;2022-09-14T13:42:54;29.97;26.14
74416;SHT31;62850;42.428;25.618;2022-09-14T13:45:21;30.06;26.75
74416;SHT31;62850;42.428;25.618;2022-09-14T13:47:47;30.15;29.08
74416;SHT31;62850;42.428;25.618;2022-09-14T13:50:13;30.21;28.13
74416;SHT31;62850;42.428;25.618;2022-09-14T13:52:41;30.19;27.98
74416;SHT31;62850;42.428;25.618;2022-09-14T13:58:20;30.19;28.03
74416;SHT31;62850;42.428;25.618;2022-09-14T14:00:58;30.09;28.10
74416;SHT31;62850;42.428;25.618;2022-09-14T14:03:55;29.91;28.46
74416;SHT31;62850;42.428;25.618;2022-09-14T14:06:29;30.14;27.87
74416;SHT31;62850;42.428;25.618;2022-09-14T14:11:32;30.05;27.85
74416;SHT31;62850;42.428;25.618;2022-09-14T14:14:28;30.05;28.35
74416;SHT31;62850;42.428;25.618;2022-09-14T14:19:38;30.06;28.30
74416;SHT31;62850;42.428;25.618;2022-09-14T14:24:44;29.91;29.28
74416;SHT31;62850;42.428;25.618;2022-09-14T14:27:43;29.97;28.23
74416;SHT31;62850;42.428;25.618;2022-09-14T14:30:16;29.85;28.57
74416;SHT31;62850;42.428;25.618;2022-09-14T14:32:42;29.78;28.31
74416;SHT31;62850;42.428;25.618;2022-09-14T14:35:21;29.74;28.04
74416;SHT31;62850;42.428;25.618;2022-09-14T14:37:47;29.64;28.92
74416;SHT31;62850;42.428;25.618;2022-09-14T14:40:14;29.67;29.13
74416;SHT31;62850;42.428;25.618;2022-09-14T14:42:40;29.67;28.64
74416;SHT31;62850;42.428;25.618;2022-09-14T14:45:12;29.57;29.10
74416;SHT31;62850;42.428;25.618;2022-09-14T14:47:38;29.34;29.75
74416;SHT31;62850;42.428;25.618;2022-09-14T14:50:12;29.07;30.33
74416;SHT31;62850;42.428;25.618;2022-09-14T14:52:38;29.16;29.99
74416;SHT31;62850;42.428;25.618;2022-09-14T14:55:04;29.17;30.22
74416;SHT31;62850;42.428;25.618;2022-09-14T14:57:29;29.06;30.40
74416;SHT31;62850;42.428;25.618;2022-09-14T14:59:55;28.95;30.31
74416;SHT31;62850;42.428;25.618;2022-09-14T15:02:21;28.86;30.41
74416;SHT31;62850;42.428;25.618;2022-09-14T15:04:46;28.74;29.76
74416;SHT31;62850;42.428;25.618;2022-09-14T15:07:13;28.71;30.46
74416;SHT31;62850;42.428;25.618;2022-09-14T15:09:38;28.64;30.22
74416;SHT31;62850;42.428;25.618;2022-09-14T15:12:04;28.44;30.75
74416;SHT31;62850;42.428;25.618;2022-09-14T15:14:29;28.36;31.03
74416;SHT31;62850;42.428;25.618;2022-09-14T15:16:55;28.34;31.20
74416;SHT31;62850;42.428;25.618;2022-09-14T15:19:24;28.28;31.58
74416;SHT31;62850;42.428;25.618;2022-09-14T15:21:50;28.11;31.64
74416;SHT31;62850;42.428;25.618;2022-09-14T15:24:15;27.85;32.02
74416;SHT31;62850;42.428;25.618;2022-09-14T15:26:41;27.80;31.97
74416;SHT31;62850;42.428;25.618;2022-09-14T15:29:06;27.62;32.28
74416;SHT31;62850;42.428;25.618;2022-09-14T15:31:33;27.43;32.40
74416;SHT31;62850;42.428;25.618;2022-09-14T15:33:58;27.24;32.80
74416;SHT31;62850;42.428;25.618;2022-09-14T15:36:44;27.11;33.34
74416;SHT31;62850;42.428;25.618;2022-09-14T15:39:14;27.02;33.25
74416;SHT31;62850;42.428;25.618;2022-09-14T15:41:40;26.95;33.72
74416;SHT31;62850;42.428;25.618;2022-09-14T15:44:06;26.81;33.84
74416;SHT31;62850;42.428;25.618;2022-09-14T15:46:32;26.67;34.25
74416;SHT31;62850;42.428;25.618;2022-09-14T15:48:58;26.57;34.50
74416;SHT31;62850;42.428;25.618;2022-09-14T15:51:28;26.57;34.81
74416;SHT31;62850;42.428;25.618;2022-09-14T15:53:53;26.43;34.90
74416;SHT31;62850;42.428;25.618;2022-09-14T15:56:19;26.30;35.08
74416;SHT31;62850;42.428;25.618;2022-09-14T15:58:44;26.15;35.37
74416;SHT31;62850;42.428;25.618;2022-09-14T16:01:11;26.01;36.01
74416;SHT31;62850;42.428;25.618;2022-09-14T16:03:37;26.01;36.48
74416;SHT31;62850;42.428;25.618;2022-09-14T16:06:05;25.80;38.46
74416;SHT31;62850;42.428;25.618;2022-09-14T16:08:31;25.48;39.08
74416;SHT31;62850;42.428;25.618;2022-09-14T16:11:00;25.26;40.36
74416;SHT31;62850;42.428;25.618;2022-09-14T16:13:26;25.04;41.13
74416;SHT31;62850;42.428;25.618;2022-09-14T16:16:11;24.85;41.97
74416;SHT31;62850;42.428;25.618;2022-09-14T16:18:38;24.72;42.56
74416;SHT31;62850;42.428;25.618;2022-09-14T16:23:32;24.10;44.19
74416;SHT31;62850;42.428;25.618;2022-09-14T16:25:58;23.96;44.44
74416;SHT31;62850;42.428;25.618;2022-09-14T16:28:24;23.93;43.94
74416;SHT31;62850;42.428;25.618;2022-09-14T16:30:50;23.71;44.67
74416;SHT31;62850;42.428;25.618;2022-09-14T16:33:15;23.60;44.72
74416;SHT31;62850;42.428;25.618;2022-09-14T16:35:41;23.38;45.37
74416;SHT31;62850;42.428;25.618;2022-09-14T16:38:07;23.53;44.60
74416;SHT31;62850;42.428;25.618;2022-09-14T16:40:32;23.45;44.59
74416;SHT31;62850;42.428;25.618;2022-09-14T16:42:58;23.23;45.20
74416;SHT31;62850;42.428;25.618;2022-09-14T16:45:24;23.15;44.70
74416;SHT31;62850;42.428;25.618;2022-09-14T16:47:49;23.15;44.67
74416;SHT31;62850;42.428;25.618;2022-09-14T16:50:16;23.14;44.59
74416;SHT31;62850;42.428;25.618;2022-09-14T16:52:41;23.09;44.92
74416;SHT31;62850;42.428;25.618;2022-09-14T16:55:07;22.88;45.44
74416;SHT31;62850;42.428;25.618;2022-09-14T16:57:32;22.72;45.82
74416;SHT31;62850;42.428;25.618;2022-09-14T16:59:58;22.67;46.24
74416;SHT31;62850;42.428;25.618;2022-09-14T17:02:24;22.64;45.87
74416;SHT31;62850;42.428;25.618;2022-09-14T17:04:49;22.58;45.72
74416;SHT31;62850;42.428;25.618;2022-09-14T17:07:15;22.51;46.05
74416;SHT31;62850;42.428;25.618;2022-09-14T17:09:40;22.47;46.01
74416;SHT31;62850;42.428;25.618;2022-09-14T17:12:06;22.43;46.28
74416;SHT31;62850;42.428;25.618;2022-09-14T17:14:32;22.36;46.30
74416;SHT31;62850;42.428;25.618;2022-09-14T17:16:58;22.36;46.04
74416;SHT31;62850;42.428;25.618;2022-09-14T17:19:25;22.39;45.94
74416;SHT31;62850;42.428;25.618;2022-09-14T17:21:51;22.36;45.76
74416;SHT31;62850;42.428;25.618;2022-09-14T17:24:18;22.35;45.58
74416;SHT31;62850;42.428;25.618;2022-09-14T17:26:45;22.36;45.19
74416;SHT31;62850;42.428;25.618;2022-09-14T17:29:10;22.32;45.31
74416;SHT31;62850;42.428;25.618;2022-09-14T17:31:38;22.26;45.55
74416;SHT31;62850;42.428;25.618;2022-09-14T17:34:06;22.20;45.62
74416;SHT31;62850;42.428;25.618;2022-09-14T17:36:32;22.24;45.87
74416;SHT31;62850;42.428;25.618;2022-09-14T17:38:59;22.20;45.73
74416;SHT31;62850;42.428;25.618;2022-09-14T17:41:27;22.16;45.70
74416;SHT31;62850;42.428;25.618;2022-09-14T17:43:59;22.12;45.55
74416;SHT31;62850;42.428;25.618;2022-09-14T17:46:26;22.13;47.31
74416;SHT31;62850;42.428;25.618;2022-09-14T17:48:52;22.14;47.54
74416;SHT31;62850;42.428;25.618;2022-09-14T17:51:20;22.06;47.40
74416;SHT31;62850;42.428;25.618;2022-09-14T17:53:51;22.06;47.28
74416;SHT31;62850;42.428;25.618;2022-09-14T17:56:19;22.05;47.17
74416;SHT31;62850;42.428;25.618;2022-09-14T17:58:45;22.03;47.10
74416;SHT31;62850;42.428;25.618;2022-09-14T18:01:12;22.00;47.34
74416;SHT31;62850;42.428;25.618;2022-09-14T18:03:40;22.00;46.84
74416;SHT31;62850;42.428;25.618;2022-09-14T18:06:08;22.00;48.29
74416;SHT31;62850;42.428;25.618;2022-09-14T18:08:35;21.98;46.81
74416;SHT31;62850;42.428;25.618;2022-09-14T18:11:15;21.99;46.81